Time;durP1;ratioP1;P1;durP2;ratioP2;P2;SDS_P1;SDS_P2;PMS_P1;PMS_P2;Temp;Humidity;BMP_temperature;BMP_pressure;BME280_temperature;BME280_humidity;BME280_pressure;Samples;Min_cycle;Max_cycle;Signal;HPM_P1;HPM_P2
2021/04/06 00:02:26;;;;;;;1.40;0.85;;;;;;;;;;5041510;28;20176;-71
2021/04/06 00:04:53;;;;;;;0.88;0.70;;;;;;;;;;5034998;28;20176;-72
2021/04/06 00:07:20;;;;;;;1.70;0.90;;;0.50;1.00;;;;;;5018493;28;20667;-72
2021/04/06 00:09:53;;;;;;;7.63;1.00;;;;;;;;;;5026473;28;20202;-72
2021/04/06 00:12:23;;;;;;;1.27;0.80;;;0.50;1.00;;;;;;5029792;28;20271;-72
2021/04/06 00:14:51;;;;;;;3.55;1.10;;;0.50;1.00;;;;;;5029129;28;20177;-72
2021/04/06 00:17:18;;;;;;;1.45;0.70;;;0.50;1.00;;;;;;5034961;28;20208;-72
2021/04/06 00:19:47;;;;;;;1.05;0.68;;;;;;;;;;5060619;28;20198;-72
2021/04/06 00:22:17;;;;;;;4.22;1.20;;;0.40;1.00;;;;;;5077239;28;20159;-71
2021/04/06 00:24:47;;;;;;;17.85;1.20;;;0.40;1.00;;;;;;5076703;28;20225;-71
2021/04/06 00:27:22;;;;;;;1.73;0.90;;;;;;;;;;5076290;28;20648;-72
2021/04/06 00:29:55;;;;;;;3.78;0.75;;;0.30;1.00;;;;;;5074658;28;20531;-71
2021/04/06 00:32:24;;;;;;;2.97;0.70;;;0.30;1.00;;;;;;5076480;28;20216;-71
2021/04/06 00:34:55;;;;;;;10.35;0.85;;;;;;;;;;5076731;28;20155;-72
2021/04/06 00:37:21;;;;;;;5.60;0.93;;;0.30;1.00;;;;;;5076909;28;20191;-72
2021/04/06 00:39:55;;;;;;;3.05;1.15;;;0.30;1.00;;;;;;5076322;28;20217;-72
2021/04/06 00:42:28;;;;;;;1.45;0.60;;;0.30;1.00;;;;;;5076625;28;20195;-73
2021/04/06 00:45:18;;;;;;;2.15;1.08;;;;;;;;;;5074837;28;20182;-72
2021/04/06 00:47:45;;;;;;;3.15;1.05;;;0.30;1.00;;;;;;5016799;28;20212;-72
2021/04/06 00:50:14;;;;;;;17.27;1.33;;;0.30;1.00;;;;;;5033872;28;20267;-72
2021/04/06 00:52:44;;;;;;;4.63;1.13;;;0.30;1.00;;;;;;5033580;28;20233;-73
2021/04/06 00:55:37;;;;;;;2.88;0.65;;;0.30;1.00;;;;;;5017159;28;20169;-73
2021/04/06 00:58:13;;;;;;;1.95;0.90;;;0.30;1.00;;;;;;5008156;28;20207;-72
2021/04/06 01:00:41;;;;;;;4.72;0.95;;;0.40;1.00;;;;;;5018523;28;20172;-72
2021/04/06 01:03:12;;;;;;;2.88;0.93;;;0.50;1.00;;;;;;5033357;28;20184;-72
2021/04/06 01:05:59;;;;;;;2.35;0.80;;;0.70;1.00;;;;;;5033070;28;20184;-71
2021/04/06 01:08:29;;;;;;;10.50;0.95;;;0.80;1.00;;;;;;5033965;28;20275;-72
2021/04/06 01:10:56;;;;;;;6.07;1.00;;;0.80;1.00;;;;;;5033824;28;20173;-72
2021/04/06 01:13:24;;;;;;;2.55;1.00;;;0.80;1.00;;;;;;5033774;28;20204;-72
2021/04/06 01:15:54;;;;;;;0.50;0.50;;;0.90;1.00;;;;;;5033625;28;20187;-71
2021/04/06 01:18:21;;;;;;;0.85;0.60;;;1.10;1.00;;;;;;5033672;28;20216;-71
2021/04/06 01:20:48;;;;;;;1.52;0.80;;;;;;;;;;5033411;28;20219;-71
2021/04/06 01:23:16;;;;;;;6.13;1.30;;;;;;;;;;5033404;28;20192;-72
2021/04/06 01:25:44;;;;;;;1.83;0.98;;;1.30;1.00;;;;;;5053750;28;20627;-71
2021/04/06 01:28:11;;;;;;;6.15;0.80;;;;;;;;;;5055776;28;20191;-71
2021/04/06 01:30:45;;;;;;;2.22;0.95;;;;;;;;;;5073465;28;20175;-71
2021/04/06 01:33:20;;;;;;;0.93;0.52;;;1.40;1.00;;;;;;5075908;28;20143;-72
2021/04/06 01:35:48;;;;;;;3.15;0.90;;;;;;;;;;5075177;28;20583;-72
2021/04/06 01:38:15;;;;;;;0.60;0.40;;;1.40;1.00;;;;;;5075554;28;20187;-72
2021/04/06 01:40:42;;;;;;;3.92;0.52;;;;;;;;;;5075624;28;20182;-71
2021/04/06 01:43:10;;;;;;;2.65;0.77;;;1.40;1.00;;;;;;5088201;28;20175;-71
2021/04/06 01:45:44;;;;;;;1.25;0.85;;;;;;;;;;5075379;28;20175;-71
2021/04/06 01:48:11;;;;;;;0.40;0.40;;;;;;;;;;5075016;28;20187;-72
2021/04/06 01:50:37;;;;;;;3.60;0.82;;;;;;;;;;5075291;28;20159;-72
2021/04/06 01:53:04;;;;;;;0.55;0.55;;;;;;;;;;5075134;28;20159;-72
2021/04/06 01:55:31;;;;;;;0.98;0.57;;;1.40;1.00;;;;;;5075448;28;20225;-72
2021/04/06 01:57:58;;;;;;;22.20;3.13;;;1.40;1.00;;;;;;5073343;28;20166;-73
2021/04/06 02:00:33;;;;;;;3.35;0.85;;;1.50;1.00;;;;;;5073313;28;20185;-72
2021/04/06 02:03:04;;;;;;;2.13;0.80;;;1.50;1.00;;;;;;5074887;28;20174;-72
2021/04/06 02:05:30;;;;;;;6.22;0.95;;;1.60;1.00;;;;;;5074914;28;20549;-72
2021/04/06 02:08:06;;;;;;;1.13;0.80;;;1.60;1.00;;;;;;5074988;28;20195;-72
2021/04/06 02:10:33;;;;;;;3.08;1.08;;;1.60;1.00;;;;;;5075284;28;20393;-71
2021/04/06 02:13:10;;;;;;;3.25;0.80;;;1.60;1.00;;;;;;5074611;28;20507;-72
2021/04/06 02:15:36;;;;;;;1.90;0.70;;;1.60;1.00;;;;;;5089577;28;20174;-72
2021/04/06 02:18:03;;;;;;;4.78;1.52;;;;;;;;;;5073409;28;20258;-72
2021/04/06 02:20:29;;;;;;;0.73;0.50;;;;;;;;;;5073382;28;20171;-72
2021/04/06 02:23:02;;;;;;;0.82;0.82;;;;;;;;;;5074599;28;20228;-72
2021/04/06 02:25:30;;;;;;;3.40;0.50;;;1.80;1.00;;;;;;5054915;28;20156;-73
2021/04/06 02:27:57;;;;;;;0.40;0.40;;;1.80;1.00;;;;;;5054442;28;20245;-72
2021/04/06 02:30:30;;;;;;;0.95;0.95;;;;;;;;;;5063848;28;20221;-72
2021/04/06 02:33:00;;;;;;;0.50;0.50;;;1.90;1.00;;;;;;5073466;28;20226;-72
2021/04/06 02:35:28;;;;;;;0.55;0.55;;;;;;;;;;5073066;28;20531;-73
2021/04/06 02:37:54;;;;;;;1.08;0.98;;;2.10;1.00;;;;;;5074188;28;20195;-73
2021/04/06 02:40:22;;;;;;;2.00;1.10;;;2.10;1.00;;;;;;5074778;28;20500;-72
2021/04/06 02:42:49;;;;;;;4.63;0.73;;;2.20;1.00;;;;;;5074395;28;20155;-72
2021/04/06 02:45:24;;;;;;;0.50;0.50;;;2.30;1.00;;;;;;5073903;28;20187;-71
2021/04/06 02:48:03;;;;;;;4.10;0.95;;;2.30;1.00;;;;;;5073897;28;20190;-72
2021/04/06 02:50:29;;;;;;;1.10;0.93;;;2.40;1.00;;;;;;5074063;28;20516;-71
2021/04/06 02:52:55;;;;;;;0.80;0.70;;;2.40;1.00;;;;;;5076187;28;20613;-72
2021/04/06 02:55:27;;;;;;;10.63;0.83;;;2.40;1.00;;;;;;5074834;28;20218;-72
2021/04/06 02:57:57;;;;;;;16.00;1.10;;;2.50;1.00;;;;;;5073822;28;20413;-72
2021/04/06 03:00:29;;;;;;;0.60;0.60;;;2.60;1.00;;;;;;5073890;28;20183;-72
2021/04/06 03:03:18;;;;;;;1.65;0.70;;;2.60;1.00;;;;;;5073063;28;20163;-72
2021/04/06 03:05:44;;;;;;;2.60;0.80;;;2.60;1.00;;;;;;5074086;28;20178;-72
2021/04/06 03:08:10;;;;;;;0.95;0.75;;;2.60;1.00;;;;;;5073253;28;20198;-72
2021/04/06 03:10:37;;;;;;;3.93;0.90;;;2.60;1.00;;;;;;5072757;28;20638;-72
2021/04/06 03:13:13;;;;;;;3.42;0.77;;;2.70;1.00;;;;;;5073580;28;20405;-73
2021/04/06 03:15:41;;;;;;;0.60;0.60;;;2.70;1.00;;;;;;5073593;28;20645;-72
2021/04/06 03:18:08;;;;;;;2.88;1.00;;;2.70;1.00;;;;;;5073057;28;20171;-73
2021/04/06 03:20:38;;;;;;;0.52;0.52;;;2.60;1.00;;;;;;5072433;28;20201;-73
2021/04/06 03:23:05;;;;;;;0.65;0.65;;;2.60;1.00;;;;;;5073514;28;20248;-73
2021/04/06 03:25:33;;;;;;;0.70;0.60;;;2.70;1.00;;;;;;5073609;28;20178;-73
2021/04/06 03:28:05;;;;;;;0.40;0.40;;;2.70;1.00;;;;;;5057988;28;20230;-74
2021/04/06 03:30:32;;;;;;;6.72;1.25;;;2.70;1.00;;;;;;5070949;28;20171;-73
2021/04/06 03:33:11;;;;;;;3.20;0.68;;;2.70;1.00;;;;;;5072232;28;20185;-73
2021/04/06 03:35:40;;;;;;;4.70;1.20;;;2.70;1.00;;;;;;5072827;28;20191;-73
2021/04/06 03:38:08;;;;;;;9.70;0.68;;;2.80;1.00;;;;;;5072879;28;20730;-73
2021/04/06 03:40:37;;;;;;;0.60;0.60;;;2.80;1.00;;;;;;5073778;28;20195;-73
2021/04/06 03:43:21;;;;;;;3.33;0.75;;;2.80;1.00;;;;;;5073609;28;20225;-73
2021/04/06 03:45:59;;;;;;;2.85;0.82;;;2.80;1.00;;;;;;5073678;28;20167;-73
2021/04/06 03:48:27;;;;;;;0.50;0.50;;;2.80;1.00;;;;;;5073053;28;20194;-73
2021/04/06 03:50:54;;;;;;;0.60;0.60;;;2.90;1.00;;;;;;5072931;28;20626;-72
2021/04/06 03:53:21;;;;;;;1.15;0.77;;;2.90;1.00;;;;;;5076307;28;20165;-73
2021/04/06 03:56:11;;;;;;;3.05;0.50;;;2.90;1.00;;;;;;5073325;28;20175;-72
2021/04/06 04:01:07;;;;;;;5.78;1.25;;;2.90;1.00;;;;;;5073136;28;20175;-73
2021/04/06 04:03:37;;;;;;;0.85;0.73;;;3.00;1.00;;;;;;5073187;28;20179;-73
2021/04/06 04:06:04;;;;;;;11.02;1.50;;;3.00;1.00;;;;;;5071201;28;20262;-72
2021/04/06 04:08:39;;;;;;;1.73;1.00;;;3.00;1.00;;;;;;5071256;28;20229;-72
2021/04/06 04:11:05;;;;;;;0.77;0.60;;;3.00;1.00;;;;;;5073414;28;20254;-72
2021/04/06 04:13:30;;;;;;;4.20;1.23;;;3.10;1.00;;;;;;5073177;28;20668;-72
2021/04/06 04:15:56;;;;;;;10.93;0.87;;;;;;;;;;5072997;28;20207;-72
2021/04/06 04:18:23;;;;;;;1.67;0.80;;;;;;;;;;5073076;28;20167;-72
2021/04/06 04:20:48;;;;;;;1.90;1.08;;;3.10;1.00;;;;;;5072295;28;20258;-72
2021/04/06 04:23:14;;;;;;;0.90;0.90;;;3.20;1.00;;;;;;5072777;28;20698;-72
2021/04/06 04:25:40;;;;;;;0.85;0.75;;;3.10;1.00;;;;;;5071939;28;20170;-71
2021/04/06 04:28:06;;;;;;;3.50;0.87;;;;;;;;;;5072503;28;20568;-72
2021/04/06 04:30:40;;;;;;;2.42;0.82;;;2.90;1.00;;;;;;5072736;28;20183;-73
2021/04/06 04:33:10;;;;;;;5.20;1.63;;;3.00;1.00;;;;;;5072038;28;20194;-73
2021/04/06 04:36:09;;;;;;;0.68;0.65;;;2.90;1.00;;;;;;5072996;28;20175;-77
2021/04/06 04:38:34;;;;;;;1.08;0.90;;;3.00;1.00;;;;;;5073422;28;20191;-74
2021/04/06 04:41:00;;;;;;;0.87;0.80;;;;;;;;;;5073713;28;20186;-72
2021/04/06 04:43:26;;;;;;;2.17;1.02;;;3.10;1.00;;;;;;5076466;28;20669;-72
2021/04/06 04:45:52;;;;;;;0.87;0.57;;;3.10;1.00;;;;;;5076678;28;20183;-72
2021/04/06 04:48:18;;;;;;;8.77;0.80;;;;;;;;;;5076098;28;20214;-72
2021/04/06 04:50:44;;;;;;;8.60;0.60;;;3.00;1.00;;;;;;5076033;28;20409;-72
2021/04/06 04:53:15;;;;;;;0.57;0.50;;;2.90;1.00;;;;;;5071104;28;20686;-72
2021/04/06 04:55:45;;;;;;;1.02;0.70;;;2.80;1.00;;;;;;5056796;28;20148;-72
2021/04/06 04:58:11;;;;;;;0.70;0.70;;;;;;;;;;5068201;28;20182;-72
2021/04/06 05:00:37;;;;;;;0.82;0.82;;;2.90;1.00;;;;;;5075731;28;20640;-72
2021/04/06 05:03:03;;;;;;;4.10;0.73;;;3.00;1.00;;;;;;5076270;28;20238;-72
2021/04/06 05:05:29;;;;;;;1.52;0.70;;;3.00;1.00;;;;;;5076462;28;20493;-72
2021/04/06 05:07:57;;;;;;;0.70;0.70;;;2.90;1.00;;;;;;5075684;28;20277;-72
2021/04/06 05:10:23;;;;;;;3.50;0.85;;;2.90;1.00;;;;;;5074912;28;20474;-73
2021/04/06 05:12:49;;;;;;;0.97;0.60;;;3.00;1.00;;;;;;5075646;28;20576;-72
2021/04/06 05:15:16;;;;;;;8.33;1.37;;;3.10;1.00;;;;;;5075887;28;20202;-72
2021/04/06 05:17:42;;;;;;;0.70;0.60;;;3.10;1.00;;;;;;5075615;28;20171;-72
2021/04/06 05:20:08;;;;;;;1.33;0.97;;;;;;;;;;5076002;28;20175;-72
2021/04/06 05:23:09;;;;;;;0.60;0.52;;;;;;;;;;5076031;28;20390;-81
2021/04/06 05:25:46;;;;;;;0.60;0.60;;;3.10;1.00;;;;;;5076421;28;20205;-80
2021/04/06 05:28:33;;;;;;;0.60;0.60;;;3.20;1.00;;;;;;5074689;28;20293;-81
2021/04/06 05:31:03;;;;;;;1.23;0.93;;;3.20;1.00;;;;;;5075491;28;20190;-80
2021/04/06 05:34:09;;;;;;;7.03;1.15;;;3.30;1.00;;;;;;5075291;28;20274;-80
2021/04/06 05:37:21;;;;;;;1.20;0.70;;;3.30;1.00;;;;;;5074743;28;20171;-80
2021/04/06 05:40:27;;;;;;;1.77;0.70;;;3.40;1.00;;;;;;5075469;28;20171;-80
2021/04/06 05:42:52;;;;;;;7.15;1.08;;;3.50;1.00;;;;;;5076044;28;20174;-72
2021/04/06 05:45:19;;;;;;;2.00;0.80;;;3.60;1.00;;;;;;5070757;28;20179;-72
2021/04/06 05:47:51;;;;;;;1.00;1.00;;;3.60;1.00;;;;;;5068536;28;20175;-73
2021/04/06 05:50:18;;;;;;;1.05;0.80;;;3.70;1.00;;;;;;5078250;28;20655;-73
2021/04/06 05:52:44;;;;;;;41.88;5.95;;;;;;;;;;5086115;28;20188;-73
2021/04/06 05:55:11;;;;;;;24.35;3.70;;;;;;;;;;5061363;28;20272;-72
2021/04/06 05:57:37;;;;;;;43.17;5.47;;;3.50;1.00;;;;;;5065889;28;20186;-72
2021/04/06 06:00:06;;;;;;;1.00;0.70;;;3.60;1.00;;;;;;5074656;28;20159;-75
2021/04/06 06:02:35;;;;;;;4.78;1.40;;;3.70;1.00;;;;;;5075115;28;20496;-74
2021/04/06 06:05:01;;;;;;;8.70;1.00;;;;;;;;;;5074681;28;20175;-75
2021/04/06 06:07:27;;;;;;;0.75;0.75;;;;;;;;;;5074701;28;20162;-75
2021/04/06 06:09:53;;;;;;;4.43;1.10;;;;;;;;;;5072957;28;20701;-72
2021/04/06 06:12:20;;;;;;;1.50;0.65;;;3.90;1.00;;;;;;5074245;28;20163;-72
2021/04/06 06:14:51;;;;;;;1.15;0.93;;;4.00;1.00;;;;;;5072588;28;20788;-72
2021/04/06 06:17:25;;;;;;;3.15;0.77;;;4.00;1.00;;;;;;5073854;28;20148;-72
2021/04/06 06:19:59;;;;;;;0.80;0.80;;;4.10;1.00;;;;;;5073159;28;20217;-72
2021/04/06 06:22:29;;;;;;;7.88;1.25;;;4.30;1.00;;;;;;5054047;28;20160;-72
2021/04/06 06:25:06;;;;;;;0.77;0.77;;;4.40;1.00;;;;;;5067736;28;20175;-72
2021/04/06 06:27:44;;;;;;;4.18;1.20;;;4.60;1.00;;;;;;5074099;28;20508;-72
2021/04/06 06:30:31;;;;;;;3.28;0.98;;;4.60;1.00;;;;;;5073761;28;20150;-72
2021/04/06 06:33:16;;;;;;;2.70;1.10;;;4.70;1.00;;;;;;5066720;28;20159;-73
2021/04/06 06:35:45;;;;;;;4.68;1.25;;;4.70;1.00;;;;;;5069642;28;20206;-72
2021/04/06 06:38:30;;;;;;;1.70;1.58;;;4.70;1.00;;;;;;5073368;28;20282;-72
2021/04/06 06:41:19;;;;;;;7.70;1.33;;;4.70;1.00;;;;;;5075538;28;20652;-72
2021/04/06 06:43:56;;;;;;;2.78;1.45;;;4.70;1.00;;;;;;5093887;28;20250;-72
2021/04/06 06:46:28;;;;;;;5.13;1.35;;;4.70;1.00;;;;;;5073244;28;20186;-72
2021/04/06 06:49:03;;;;;;;11.43;1.95;;;4.80;1.00;;;;;;5072876;28;20228;-74
2021/04/06 06:51:37;;;;;;;4.00;0.98;;;4.90;1.00;;;;;;5072217;28;20198;-72
2021/04/06 06:54:06;;;;;;;6.93;1.67;;;5.10;1.00;;;;;;5072553;28;20183;-72
2021/04/06 06:56:34;;;;;;;4.13;1.10;;;5.20;1.00;;;;;;5073306;28;20641;-72
2021/04/06 06:59:00;;;;;;;1.35;0.90;;;;;;;;;;5073293;28;20654;-72
2021/04/06 07:01:28;;;;;;;5.28;1.10;;;5.30;1.00;;;;;;5073224;28;20155;-72
2021/04/06 07:04:09;;;;;;;2.93;0.90;;;5.40;1.00;;;;;;5072301;28;20163;-72
2021/04/06 07:06:38;;;;;;;2.37;1.00;;;;;;;;;;5051906;28;20406;-72
2021/04/06 07:09:23;;;;;;;3.73;0.90;;;5.40;1.00;;;;;;5057362;28;20947;-72
2021/04/06 07:11:53;;;;;;;2.60;1.20;;;5.50;1.00;;;;;;5073916;28;20393;-72
2021/04/06 07:14:24;;;;;;;1.40;0.73;;;5.40;1.00;;;;;;5073695;28;20179;-72
2021/04/06 07:16:52;;;;;;;3.57;1.57;;;5.30;1.00;;;;;;5072436;28;20421;-72
2021/04/06 07:19:20;;;;;;;14.95;2.42;;;5.30;1.00;;;;;;5073235;28;20470;-72
2021/04/06 07:21:46;;;;;;;3.20;1.40;;;;;;;;;;5073613;28;20163;-72
2021/04/06 07:24:20;;;;;;;13.43;1.42;;;5.20;1.00;;;;;;5073637;28;20477;-72
2021/04/06 07:26:47;;;;;;;2.25;0.98;;;5.20;1.00;;;;;;5073751;28;20170;-72
2021/04/06 07:29:16;;;;;;;5.47;1.20;;;5.10;1.00;;;;;;5072956;28;20277;-72
2021/04/06 07:31:42;;;;;;;4.72;1.52;;;5.10;1.00;;;;;;5072923;28;20175;-72
2021/04/06 07:34:09;;;;;;;2.40;1.25;;;5.20;1.00;;;;;;5073656;28;20159;-72
2021/04/06 07:36:36;;;;;;;4.40;1.57;;;5.30;1.00;;;;;;5071645;28;20271;-72
2021/04/06 07:39:08;;;;;;;3.90;1.10;;;5.40;1.00;;;;;;5073266;28;20452;-71
2021/04/06 07:41:39;;;;;;;6.50;1.10;;;5.30;1.00;;;;;;5072690;28;20187;-72
2021/04/06 07:44:05;;;;;;;2.30;1.00;;;5.40;1.00;;;;;;5072914;28;20246;-72
2021/04/06 07:46:34;;;;;;;2.17;0.97;;;5.50;1.00;;;;;;5073216;28;20420;-72
2021/04/06 07:49:07;;;;;;;2.03;0.90;;;5.50;1.00;;;;;;5073395;28;20876;-72
2021/04/06 07:51:55;;;;;;;9.90;1.17;;;5.60;1.00;;;;;;5073374;28;20163;-72
2021/04/06 07:54:24;;;;;;;4.63;1.50;;;5.50;1.00;;;;;;5072809;28;20424;-72
2021/04/06 07:56:58;;;;;;;2.57;0.87;;;5.60;1.00;;;;;;5073370;28;20842;-71
2021/04/06 07:59:24;;;;;;;1.27;0.97;;;;;;;;;;5071813;28;20481;-72
2021/04/06 08:01:50;;;;;;;2.93;0.83;;;5.70;1.00;;;;;;5073244;28;20779;-72
2021/04/06 08:04:17;;;;;;;3.60;1.87;;;5.70;1.00;;;;;;5072935;28;20410;-72
2021/04/06 08:06:44;;;;;;;3.57;0.90;;;;;;;;;;5073053;28;20187;-72
2021/04/06 08:09:35;;;;;;;7.10;1.23;;;5.90;1.00;;;;;;5071810;28;20441;-72
2021/04/06 08:12:10;;;;;;;1.80;1.20;;;6.00;1.00;;;;;;5073045;28;20904;-72
2021/04/06 08:14:44;;;;;;;7.33;1.40;;;5.90;1.00;;;;;;5072109;28;20413;-72
2021/04/06 08:17:28;;;;;;;7.97;0.90;;;;;;;;;;5077235;28;20401;-72
2021/04/06 08:20:31;;;;;;;1.30;0.80;;;5.80;1.00;;;;;;5075840;28;20405;-72
2021/04/06 08:23:13;;;;;;;0.70;0.70;;;5.80;1.00;;;;;;5054285;28;20475;-72
2021/04/06 08:25:42;;;;;;;1.13;0.80;;;5.80;1.00;;;;;;5054602;28;20560;-73
2021/04/06 08:28:34;;;;;;;9.70;1.00;;;5.50;1.00;;;;;;5055033;28;20461;-72
2021/04/06 08:31:30;;;;;;;0.70;0.65;;;5.40;1.00;;;;;;5054195;28;20382;-72
2021/04/06 08:34:26;;;;;;;2.13;0.90;;;5.40;1.00;;;;;;4974851;28;20182;-72
2021/04/06 08:37:12;;;;;;;3.15;1.33;;;5.50;1.00;;;;;;4935705;29;20500;-72
2021/04/06 08:39:39;;;;;;;3.23;1.20;;;5.50;1.00;;;;;;4937064;29;20212;-72
2021/04/06 08:42:06;;;;;;;2.50;1.00;;;;;;;;;;4937156;29;20454;-72
2021/04/06 08:44:34;;;;;;;0.50;0.50;;;5.50;1.00;;;;;;4936699;29;20545;-73
2021/04/06 08:47:00;;;;;;;1.23;0.67;;;;;;;;;;4936870;29;20854;-72
2021/04/06 08:49:27;;;;;;;0.90;0.90;;;5.50;1.00;;;;;;4936961;29;20558;-72
2021/04/06 08:51:53;;;;;;;0.63;0.63;;;;;;;;;;4937095;29;20218;-72
2021/04/06 08:54:22;;;;;;;2.43;0.83;;;5.50;1.00;;;;;;4936306;29;20271;-72
2021/04/06 08:56:52;;;;;;;11.10;1.10;;;5.60;1.00;;;;;;4922194;29;20436;-72
2021/04/06 08:59:30;;;;;;;2.40;0.70;;;5.70;1.00;;;;;;4925706;29;20424;-72
2021/04/06 09:01:59;;;;;;;7.67;1.00;;;5.70;1.00;;;;;;4949772;29;20921;-72
2021/04/06 09:04:29;;;;;;;3.93;2.20;;;5.90;1.00;;;;;;4954036;29;20414;-72
2021/04/06 09:06:56;;;;;;;3.03;0.80;;;6.00;1.00;;;;;;4945867;28;20486;-72
2021/04/06 09:09:29;;;;;;;3.97;1.10;;;6.00;1.00;;;;;;4964491;28;20818;-72
2021/04/06 09:12:00;;;;;;;7.10;1.33;;;6.10;1.00;;;;;;5010878;28;20497;-72
2021/04/06 09:14:28;;;;;;;2.20;0.87;;;6.20;1.00;;;;;;5061146;28;20437;-72
2021/04/06 09:16:57;;;;;;;0.80;0.63;;;;;;;;;;5075159;28;20406;-72
2021/04/06 09:19:24;;;;;;;2.00;0.60;;;6.30;1.00;;;;;;5058741;28;20612;-72
2021/04/06 09:21:53;;;;;;;5.70;1.13;;;6.50;1.00;;;;;;5064572;28;20413;-72
2021/04/06 09:24:20;;;;;;;1.80;0.73;;;6.60;1.00;;;;;;5069413;28;20842;-72
2021/04/06 09:26:49;;;;;;;5.10;0.70;;;6.70;1.00;;;;;;5054176;28;20433;-72
2021/04/06 09:29:18;;;;;;;2.30;0.60;;;6.70;1.00;;;;;;5055127;28;20534;-72
2021/04/06 09:31:52;;;;;;;4.13;0.80;;;6.70;1.00;;;;;;5061518;28;20405;-72
2021/04/06 09:34:20;;;;;;;1.00;0.70;;;6.50;1.00;;;;;;5073709;28;20829;-72
2021/04/06 09:36:55;;;;;;;6.30;1.57;;;6.40;1.00;;;;;;5073897;28;20461;-72
2021/04/06 09:39:22;;;;;;;7.13;1.27;;;6.30;1.00;;;;;;5073033;28;20494;-72
2021/04/06 09:41:48;;;;;;;1.33;0.90;;;;;;;;;;5074446;28;20426;-72
2021/04/06 09:44:18;;;;;;;3.23;1.17;;;6.10;1.00;;;;;;5075031;28;20393;-72
2021/04/06 09:47:08;;;;;;;1.10;0.70;;;5.90;1.00;;;;;;5074662;28;20402;-72
2021/04/06 09:49:40;;;;;;;4.30;1.00;;;5.80;1.00;;;;;;5073929;28;20452;-72
2021/04/06 09:52:15;;;;;;;9.20;0.90;;;;;;;;;;5074015;28;20417;-72
2021/04/06 09:55:04;;;;;;;1.80;0.87;;;6.00;1.00;;;;;;5074294;28;20424;-72
2021/04/06 09:57:37;;;;;;;0.70;0.63;;;6.30;1.00;;;;;;5074128;28;20405;-72
2021/04/06 10:00:08;;;;;;;0.77;0.77;;;6.40;1.00;;;;;;5073573;28;20868;-72
2021/04/06 10:02:34;;;;;;;2.50;0.90;;;;;;;;;;5081606;28;20928;-72
2021/04/06 10:05:00;;;;;;;3.30;1.00;;;;;;;;;;5074423;28;20416;-71
2021/04/06 10:07:29;;;;;;;4.30;0.97;;;6.30;1.00;;;;;;5071963;28;20471;-73
2021/04/06 10:10:00;;;;;;;0.77;0.77;;;6.10;1.00;;;;;;5073690;28;20452;-72
2021/04/06 10:12:29;;;;;;;1.20;0.90;;;6.00;1.00;;;;;;5073286;28;20424;-72
2021/04/06 10:14:55;;;;;;;3.00;1.00;;;;;;;;;;5074407;28;20409;-72
2021/04/06 10:17:34;;;;;;;3.90;0.93;;;6.10;1.00;;;;;;5073693;28;20409;-73
2021/04/06 10:20:07;;;;;;;0.97;0.87;;;6.10;1.00;;;;;;5074003;28;20412;-72
2021/04/06 10:22:45;;;;;;;1.77;0.60;;;6.00;1.00;;;;;;5073949;28;20480;-72
2021/04/06 10:25:19;;;;;;;4.83;1.30;;;6.10;1.00;;;;;;5073653;28;20492;-72
2021/04/06 10:27:51;;;;;;;3.40;1.23;;;6.40;1.00;;;;;;5073251;28;20521;-72
2021/04/06 10:30:26;;;;;;;5.73;1.10;;;6.80;1.00;;;;;;5073747;28;20445;-72
2021/04/06 10:33:02;;;;;;;0.80;0.80;;;7.00;1.00;;;;;;5073686;28;20381;-73
2021/04/06 10:35:30;;;;;;;0.60;0.60;;;6.90;1.00;;;;;;5073300;28;20425;-71
2021/04/06 10:37:57;;;;;;;1.17;0.90;;;;;;;;;;5072494;28;20451;-72
2021/04/06 10:40:36;;;;;;;1.37;0.80;;;6.50;1.00;;;;;;5071039;28;20923;-72
2021/04/06 10:43:07;;;;;;;1.43;0.80;;;6.50;1.00;;;;;;5072830;28;20475;-72
2021/04/06 10:45:35;;;;;;;1.27;0.97;;;6.50;1.00;;;;;;5073183;28;20434;-71
2021/04/06 10:48:16;;;;;;;4.00;1.37;;;6.70;1.00;;;;;;5055028;28;20398;-72
2021/04/06 10:50:50;;;;;;;0.63;0.63;;;7.00;1.00;;;;;;5071371;28;20613;-73
2021/04/06 10:53:20;;;;;;;1.10;0.77;;;7.30;1.00;;;;;;5072348;28;20478;-72
2021/04/06 10:55:52;;;;;;;8.97;1.10;;;7.50;1.00;;;;;;5071531;28;20412;-72
2021/04/06 10:58:27;;;;;;;2.30;0.83;;;7.80;1.00;;;;;;5072028;28;20448;-72
2021/04/06 11:01:03;;;;;;;1.33;0.97;;;8.00;1.00;;;;;;5079648;28;20420;-72
2021/04/06 11:03:45;;;;;;;3.60;1.00;;;8.10;1.00;;;;;;5089628;28;20428;-72
2021/04/06 11:06:14;;;;;;;3.20;0.60;;;8.10;1.00;;;;;;5071680;28;20428;-72
2021/04/06 11:08:42;;;;;;;4.57;1.33;;;8.10;1.00;;;;;;5073010;28;20437;-72
2021/04/06 11:11:19;;;;;;;4.93;1.00;;;8.10;1.00;;;;;;5073103;28;20475;-72
2021/04/06 11:13:45;;;;;;;1.20;1.10;;;8.30;1.00;;;;;;5073364;28;20393;-71
2021/04/06 11:16:12;;;;;;;3.90;0.93;;;;;;;;;;5072173;28;20437;-72
2021/04/06 11:18:38;;;;;;;0.80;0.80;;;;;;;;;;5073009;28;20458;-72
2021/04/06 11:21:04;;;;;;;4.10;1.00;;;8.70;1.00;;;;;;5072303;28;20414;-72
2021/04/06 11:23:30;;;;;;;1.53;0.80;;;;;;;;;;5072464;28;20504;-71
2021/04/06 11:25:56;;;;;;;0.97;0.90;;;;;;;;;;5072675;28;20445;-72
2021/04/06 11:28:22;;;;;;;1.90;0.97;;;;;;;;;;5071789;28;20519;-72
2021/04/06 11:30:48;;;;;;;1.20;0.87;;;;;;;;;;5071973;28;20927;-72
2021/04/06 11:33:14;;;;;;;2.50;0.80;;;;;;;;;;5072831;28;20488;-71
2021/04/06 11:35:40;;;;;;;5.17;1.20;;;;;;;;;;5072561;28;20401;-72
2021/04/06 11:38:06;;;;;;;5.87;1.10;;;;;;;;;;5072317;28;20498;-71
2021/04/06 11:40:32;;;;;;;1.80;0.90;;;;;;;;;;5070219;28;20490;-72
2021/04/06 11:42:59;;;;;;;1.63;1.00;;;;;;;;;;5072700;28;20401;-72
2021/04/06 11:45:24;;;;;;;1.10;0.80;;;8.50;1.00;;;;;;5072857;28;20421;-72
2021/04/06 11:47:52;;;;;;;3.90;1.47;;;8.60;1.00;;;;;;5071864;28;20750;-72
2021/04/06 11:50:19;;;;;;;2.90;1.00;;;8.80;1.00;;;;;;5072192;28;20186;-72
2021/04/06 11:52:45;;;;;;;5.70;1.20;;;8.80;1.00;;;;;;5071396;28;20410;-71
2021/04/06 11:55:11;;;;;;;1.50;0.90;;;;;;;;;;5071964;28;20421;-72
2021/04/06 11:57:38;;;;;;;8.77;2.07;;;;;;;;;;5072939;28;20442;-71
2021/04/06 12:00:05;;;;;;;1.33;0.80;;;8.60;1.00;;;;;;5071101;28;20508;-72
2021/04/06 12:02:32;;;;;;;4.77;1.10;;;8.70;1.00;;;;;;5077583;28;20425;-72
2021/04/06 12:04:58;;;;;;;2.40;0.90;;;;;;;;;;5072507;28;20414;-71
2021/04/06 12:07:24;;;;;;;1.50;0.70;;;;;;;;;;5072278;28;20989;-72
2021/04/06 12:09:50;;;;;;;2.40;0.70;;;;;;;;;;5058185;28;20449;-72
2021/04/06 12:12:16;;;;;;;0.83;0.60;;;;;;;;;;5072479;28;20755;-71
2021/04/06 12:14:42;;;;;;;3.63;0.70;;;;;;;;;;5072598;28;20413;-71
2021/04/06 12:17:08;;;;;;;1.20;0.60;;;;;;;;;;5072068;28;20668;-72
2021/04/06 12:19:34;;;;;;;0.93;0.73;;;;;;;;;;5071823;28;20409;-72
2021/04/06 12:22:00;;;;;;;2.60;0.80;;;;;;;;;;5072104;28;20857;-71
2021/04/06 12:24:26;;;;;;;0.50;0.47;;;;;;;;;;5072344;28;20385;-72
2021/04/06 12:26:56;;;;;;;1.13;0.50;;;8.60;1.00;;;;;;5071685;28;20821;-73
2021/04/06 12:29:27;;;;;;;0.67;0.60;;;8.40;1.00;;;;;;5072190;28;20535;-71
2021/04/06 12:31:53;;;;;;;0.57;0.57;;;;;;;;;;5071992;28;20416;-72
2021/04/06 12:34:19;;;;;;;0.50;0.50;;;;;;;;;;5071480;28;20421;-70
2021/04/06 12:36:45;;;;;;;0.73;0.57;;;;;;;;;;5071132;28;20420;-71
2021/04/06 12:39:11;;;;;;;0.47;0.47;;;;;;;;;;5071614;28;20441;-72
2021/04/06 12:41:37;;;;;;;0.87;0.70;;;;;;;;;;5068952;28;20486;-74
2021/04/06 12:44:04;;;;;;;2.83;0.97;;;;;;;;;;5071194;28;20433;-72
2021/04/06 12:46:29;;;;;;;6.57;0.70;;;7.90;1.00;;;;;;5072013;28;20406;-72
2021/04/06 12:48:55;;;;;;;0.83;0.50;;;8.10;1.00;;;;;;5071897;28;20445;-72
2021/04/06 12:51:21;;;;;;;1.27;0.60;;;;;;;;;;5071159;28;20187;-72
2021/04/06 12:53:47;;;;;;;0.53;0.53;;;;;;;;;;5071067;28;20190;-72
2021/04/06 12:56:13;;;;;;;0.60;0.50;;;;;;;;;;5072120;28;20393;-72
2021/04/06 12:58:39;;;;;;;0.70;0.60;;;;;;;;;;5071975;28;20398;-72
2021/04/06 13:01:05;;;;;;;0.50;0.50;;;;;;;;;;5074570;28;20421;-72
2021/04/06 13:03:31;;;;;;;0.57;0.57;;;;;;;;;;5074833;28;20413;-72
2021/04/06 13:05:57;;;;;;;5.37;0.90;;;;;;;;;;5074379;28;20433;-72
2021/04/06 13:08:23;;;;;;;1.43;0.83;;;;;;;;;;5071289;28;20556;-72
2021/04/06 13:10:52;;;;;;;1.17;0.63;;;;;;;;;;5073714;28;20436;-72
2021/04/06 13:13:18;;;;;;;0.50;0.50;;;;;;;;;;5074136;28;20512;-72
2021/04/06 13:15:46;;;;;;;0.50;0.50;;;8.90;1.00;;;;;;5074179;28;20453;-71
2021/04/06 13:18:12;;;;;;;1.40;0.60;;;9.00;1.00;;;;;;5075978;28;20392;-72
2021/04/06 13:20:40;;;;;;;0.87;0.50;;;;;;;;;;5075459;28;20510;-71
2021/04/06 13:23:06;;;;;;;1.37;0.63;;;9.00;1.00;;;;;;5075788;28;20438;-71
2021/04/06 13:25:32;;;;;;;0.60;0.60;;;8.90;1.00;;;;;;5075406;28;20429;-71
2021/04/06 13:27:59;;;;;;;1.10;0.50;;;;;;;;;;5074169;28;20413;-72
2021/04/06 13:30:25;;;;;;;1.30;0.60;;;;;;;;;;5075669;28;20758;-71
2021/04/06 13:32:52;;;;;;;0.80;0.60;;;9.10;1.00;;;;;;5074374;28;20804;-71
2021/04/06 13:35:18;;;;;;;3.07;0.80;;;9.20;1.00;;;;;;5074063;28;20486;-71
2021/04/06 13:37:44;;;;;;;0.97;0.50;;;9.30;1.00;;;;;;5075359;28;20535;-70
2021/04/06 13:40:13;;;;;;;1.17;0.60;;;9.30;1.00;;;;;;5075664;28;20488;-71
2021/04/06 13:42:39;;;;;;;2.73;1.03;;;;;;;;;;5069886;28;20429;-72
2021/04/06 13:45:13;;;;;;;0.50;0.50;;;9.10;1.00;;;;;;5074689;28;20443;-71
2021/04/06 13:47:39;;;;;;;0.77;0.53;;;9.10;1.00;;;;;;5075255;28;20449;-72
2021/04/06 13:50:08;;;;;;;2.53;0.60;;;8.90;1.00;;;;;;5075080;28;20991;-71
2021/04/06 13:52:34;;;;;;;3.90;1.17;;;;;;;;;;5072945;28;20199;-71
2021/04/06 13:55:00;;;;;;;0.70;0.70;;;;;;;;;;5072245;28;20932;-72